createdAt,value
2019-05-30T00:02:21.681Z,13.87
2019-05-30T00:07:26.692Z,13.96
2019-05-30T00:12:31.663Z,13.90
2019-05-30T00:17:36.590Z,13.91
2019-05-30T00:22:41.592Z,13.93
2019-05-30T00:27:46.490Z,13.88
2019-05-30T00:32:51.305Z,13.89
2019-05-30T00:37:57.646Z,13.90
2019-05-30T00:43:04.111Z,13.92
2019-05-30T00:48:09.002Z,13.93
2019-05-30T00:53:13.913Z,13.92
2019-05-30T00:58:18.707Z,13.96
2019-05-30T01:03:23.470Z,13.94
2019-05-30T01:08:28.223Z,13.86
2019-05-30T01:13:33.266Z,13.83
2019-05-30T01:18:38.178Z,13.80
2019-05-30T01:23:46.211Z,13.71
2019-05-30T01:28:51.229Z,13.72
2019-05-30T01:33:57.405Z,13.62
2019-05-30T01:39:02.310Z,13.54
2019-05-30T01:44:08.352Z,13.56
2019-05-30T01:49:13.320Z,13.56
2019-05-30T01:54:18.291Z,13.57
2019-05-30T01:59:23.501Z,13.58
2019-05-30T02:04:28.455Z,13.56
2019-05-30T02:09:33.405Z,13.55
2019-05-30T02:14:38.301Z,13.53
2019-05-30T02:19:43.158Z,13.54
2019-05-30T02:24:47.949Z,13.51
2019-05-30T02:29:52.780Z,13.54
2019-05-30T02:34:57.548Z,13.49
2019-05-30T02:40:03.914Z,13.52
2019-05-30T02:45:11.905Z,13.46
2019-05-30T02:50:17.694Z,13.41
2019-05-30T02:55:22.436Z,13.40
2019-05-30T03:00:35.261Z,13.30
2019-05-30T03:05:40.213Z,13.26
2019-05-30T03:10:45.333Z,13.21
2019-05-30T03:15:50.450Z,13.18
2019-05-30T03:20:55.501Z,13.27
2019-05-30T03:26:02.415Z,13.27
2019-05-30T03:31:20.332Z,13.29
2019-05-30T03:36:27.090Z,13.30
2019-05-30T03:41:22.104Z,13.16
2019-05-30T03:46:30.993Z,13.18
2019-05-30T03:51:37.463Z,13.16
2019-05-30T03:56:48.157Z,13.11
2019-05-30T04:02:00.470Z,13.14
2019-05-30T04:07:11.962Z,13.13
2019-05-30T04:12:28.515Z,13.17
2019-05-30T04:17:33.417Z,13.14
2019-05-30T04:22:38.513Z,13.15
2019-05-30T04:27:43.282Z,13.09
2019-05-30T04:32:48.154Z,13.02
2019-05-30T04:37:52.903Z,13.00
2019-05-30T04:42:57.716Z,12.97
2019-05-30T04:48:02.557Z,12.88
2019-05-30T04:53:07.340Z,12.85
2019-05-30T04:58:13.329Z,12.84
2019-05-30T05:03:37.000Z,12.92
2019-05-30T05:08:25.255Z,12.89
2019-05-30T05:13:30.350Z,13.03
2019-05-30T05:18:35.295Z,13.09
2019-05-30T05:23:40.154Z,13.11
2019-05-30T05:28:45.025Z,13.16
2019-05-30T05:33:56.567Z,13.28
2019-05-30T05:38:56.923Z,13.31
2019-05-30T05:44:01.826Z,13.45
2019-05-30T05:49:06.640Z,13.42
2019-05-30T05:54:11.445Z,13.35
2019-05-30T05:59:17.029Z,13.42
2019-05-30T06:04:23.151Z,13.66
2019-05-30T06:09:28.800Z,13.81
2019-05-30T06:14:33.782Z,13.96
2019-05-30T06:19:46.345Z,13.85
2019-05-30T06:24:45.674Z,13.90
2019-05-30T06:29:50.659Z,13.90
2019-05-30T06:34:55.953Z,13.91
2019-05-30T06:40:01.560Z,14.04
2019-05-30T06:45:07.373Z,14.26
2019-05-30T06:50:12.866Z,14.25
2019-05-30T06:55:17.797Z,14.44
2019-05-30T07:00:23.700Z,14.66
2019-05-30T07:05:30.534Z,14.80
2019-05-30T07:10:35.898Z,14.88
2019-05-30T07:15:41.290Z,15.05
2019-05-30T07:20:46.473Z,15.11
2019-05-30T07:25:51.485Z,15.02
2019-05-30T07:30:56.406Z,15.41
2019-05-30T07:36:01.451Z,15.39
2019-05-30T07:41:06.430Z,15.27
2019-05-30T07:46:11.953Z,15.25
2019-05-30T07:51:16.890Z,15.35
2019-05-30T07:56:21.888Z,15.54
2019-05-30T08:01:26.897Z,15.49
2019-05-30T08:06:31.954Z,15.62
2019-05-30T08:11:36.950Z,15.75
2019-05-30T08:16:42.012Z,16.05
2019-05-30T08:21:47.310Z,16.33
2019-05-30T08:26:52.434Z,16.25
2019-05-30T08:31:57.630Z,16.18
2019-05-30T08:37:02.872Z,16.33
2019-05-30T08:42:08.370Z,16.50
2019-05-30T08:47:13.630Z,16.60
2019-05-30T08:52:19.284Z,16.76
2019-05-30T08:57:24.483Z,17.13
2019-05-30T09:02:30.211Z,17.58
2019-05-30T09:07:36.391Z,18.49
2019-05-30T09:12:45.190Z,19.52
2019-05-30T09:17:48.970Z,19.55
2019-05-30T09:22:54.213Z,20.05
2019-05-30T09:27:59.311Z,19.93
2019-05-30T09:33:04.566Z,20.14
2019-05-30T09:38:09.975Z,20.58
2019-05-30T09:43:15.531Z,19.84
2019-05-30T09:48:21.652Z,19.92
2019-05-30T09:53:26.834Z,20.02
2019-05-30T09:58:31.944Z,20.68
2019-05-30T10:03:37.509Z,20.70
2019-05-30T10:08:44.348Z,19.88
2019-05-30T10:13:51.121Z,20.40
2019-05-30T10:18:57.098Z,20.19
2019-05-30T10:24:02.590Z,19.91
2019-05-30T10:29:08.283Z,19.63
2019-05-30T10:34:13.438Z,19.61
2019-05-30T10:39:18.782Z,19.46
2019-05-30T10:44:24.351Z,20.12
2019-05-30T10:49:34.758Z,20.49
2019-05-30T10:54:36.971Z,20.76
2019-05-30T10:59:42.281Z,22.29
2019-05-30T11:04:48.949Z,22.08
2019-05-30T11:10:01.176Z,21.78
2019-05-30T11:15:07.575Z,21.58
2019-05-30T11:20:13.555Z,20.20
2019-05-30T11:25:18.682Z,20.05
2019-05-30T11:30:24.142Z,19.81
2019-05-30T11:35:29.518Z,20.46
2019-05-30T11:40:34.655Z,21.39
2019-05-30T11:45:40.064Z,20.90
2019-05-30T11:50:45.840Z,19.89
2019-05-30T11:55:52.247Z,18.94
2019-05-30T12:00:58.428Z,19.26
2019-05-30T12:06:04.117Z,19.60
2019-05-30T12:11:09.178Z,19.43
2019-05-30T12:16:14.433Z,19.39
2019-05-30T12:21:20.033Z,19.30
2019-05-30T12:26:25.498Z,19.54
2019-05-30T12:31:30.840Z,19.36
2019-05-30T12:36:35.854Z,19.16
2019-05-30T12:41:41.154Z,19.56
2019-05-30T12:46:46.604Z,19.46
2019-05-30T12:51:51.610Z,19.79
2019-05-30T12:56:56.733Z,20.39
2019-05-30T13:02:03.083Z,20.35
2019-05-30T13:07:08.325Z,21.21
2019-05-30T13:12:13.734Z,21.40
2019-05-30T13:17:18.784Z,20.61
2019-05-30T13:22:24.144Z,19.95
2019-05-30T13:27:29.359Z,19.54
2019-05-30T13:32:34.414Z,20.54
2019-05-30T13:37:39.941Z,19.77
2019-05-30T13:42:44.997Z,19.53
2019-05-30T13:47:50.254Z,19.99
2019-05-30T13:52:55.360Z,19.86
2019-05-30T13:58:01.562Z,20.29
2019-05-30T14:03:08.135Z,20.58
2019-05-30T14:08:16.621Z,20.06
2019-05-30T14:13:21.384Z,19.07
2019-05-30T14:18:26.530Z,18.72
2019-05-30T14:23:31.602Z,18.85
2019-05-30T14:28:36.754Z,19.03
2019-05-30T14:33:41.789Z,18.92
2019-05-30T14:38:57.956Z,19.00
2019-05-30T14:43:53.528Z,18.98
2019-05-30T14:48:58.569Z,18.33
2019-05-30T14:54:05.207Z,18.02
2019-05-30T14:59:11.083Z,17.55
2019-05-30T15:04:17.457Z,17.38
2019-05-30T15:09:26.065Z,17.37
2019-05-30T15:14:29.481Z,17.27
2019-05-30T15:19:34.845Z,16.97
2019-05-30T15:24:39.919Z,16.93
2019-05-30T15:29:45.039Z,16.94
2019-05-30T15:34:50.059Z,17.23
2019-05-30T15:39:55.450Z,17.46
2019-05-30T15:45:00.569Z,17.50
2019-05-30T15:50:06.625Z,17.07
2019-05-30T15:55:13.213Z,16.92
2019-05-30T16:00:19.991Z,16.91
2019-05-30T16:05:25.544Z,16.79
2019-05-30T16:10:31.041Z,16.53
2019-05-30T16:15:36.159Z,16.52
2019-05-30T16:20:41.095Z,16.71
2019-05-30T16:25:46.517Z,16.85
2019-05-30T16:30:51.701Z,16.77
2019-05-30T16:35:56.899Z,16.58
2019-05-30T16:41:02.030Z,16.44
2019-05-30T16:46:07.046Z,16.11
2019-05-30T16:51:12.103Z,16.12
2019-05-30T16:56:17.346Z,16.04
2019-05-30T17:01:22.304Z,16.10
2019-05-30T17:06:27.542Z,16.06
2019-05-30T17:11:32.474Z,15.98
2019-05-30T17:16:37.277Z,15.84
2019-05-30T17:21:42.134Z,15.64
2019-05-30T17:26:51.155Z,15.65
2019-05-30T17:31:53.503Z,15.57
2019-05-30T17:36:58.672Z,15.51
2019-05-30T17:42:03.451Z,15.65
2019-05-30T17:47:08.185Z,15.40
2019-05-30T17:52:13.040Z,15.40
2019-05-30T17:57:18.055Z,15.57
2019-05-30T18:02:24.294Z,15.76
2019-05-30T18:07:29.228Z,15.69
2019-05-30T18:12:34.052Z,15.51
2019-05-30T18:17:38.803Z,15.25
2019-05-30T18:22:43.992Z,15.02
2019-05-30T18:27:48.891Z,14.92
2019-05-30T18:32:54.060Z,14.88
2019-05-30T18:38:01.797Z,14.77
2019-05-30T18:43:06.542Z,14.69
2019-05-30T18:48:12.382Z,14.73
2019-05-30T18:58:47.944Z,14.77
2019-05-30T19:03:52.789Z,14.74
2019-05-30T19:08:57.600Z,14.71
2019-05-30T19:14:02.582Z,14.67
2019-05-30T19:19:08.401Z,14.68
2019-05-30T19:24:13.140Z,14.74
2019-05-30T19:29:18.018Z,14.75
2019-05-30T19:34:23.000Z,14.73
2019-05-30T19:39:29.257Z,14.68
2019-05-30T19:44:38.375Z,14.57
2019-05-30T19:49:40.901Z,14.51
2019-05-30T19:54:45.580Z,14.45
2019-05-30T19:59:50.462Z,14.39
2019-05-30T20:04:55.313Z,14.39
2019-05-30T20:10:01.724Z,14.40
2019-05-30T20:15:08.200Z,14.30
2019-05-30T20:20:13.364Z,14.30
2019-05-30T20:25:18.525Z,14.31
2019-05-30T20:30:23.741Z,14.33
2019-05-30T20:35:28.520Z,14.36
2019-05-30T20:40:34.805Z,14.32
2019-05-30T20:45:45.673Z,14.34
2019-05-30T20:50:47.401Z,14.30
2019-05-30T20:55:52.558Z,14.29
2019-05-30T21:00:57.341Z,14.31
2019-05-30T21:06:02.582Z,14.29
2019-05-30T21:11:09.282Z,14.25
2019-05-30T21:16:16.184Z,14.22
2019-05-30T21:21:21.147Z,14.22
2019-05-30T21:26:26.102Z,14.17
2019-05-30T21:31:31.003Z,14.13
2019-05-30T21:36:35.832Z,14.10
2019-05-30T21:41:40.612Z,14.11
2019-05-30T21:46:46.688Z,14.13
2019-05-30T21:51:51.780Z,14.17
2019-05-30T21:56:56.661Z,14.17
2019-05-30T22:02:01.617Z,14.15
2019-05-30T22:07:06.403Z,14.15
2019-05-30T22:12:11.120Z,14.16
2019-05-30T22:17:15.914Z,14.17
2019-05-30T22:22:20.700Z,14.15
2019-05-30T22:27:25.584Z,14.13
2019-05-30T22:32:30.540Z,14.12
2019-05-30T22:37:35.340Z,14.11
2019-05-30T22:42:40.282Z,14.10
2019-05-30T22:47:46.260Z,14.09
2019-05-30T22:52:51.140Z,14.09
2019-05-30T22:57:56.789Z,14.10
2019-05-30T23:03:01.665Z,14.11
2019-05-30T23:08:06.453Z,14.09
2019-05-30T23:13:11.361Z,14.09
2019-05-30T23:18:16.279Z,14.08
2019-05-30T23:23:21.100Z,14.07
2019-05-30T23:28:25.840Z,14.09
2019-05-30T23:33:30.604Z,14.08
2019-05-30T23:38:35.280Z,13.97
2019-05-30T23:43:53.178Z,13.94
2019-05-30T23:48:46.926Z,13.94
2019-05-30T23:53:52.093Z,13.92
2019-05-30T23:58:56.904Z,13.82
